createdAt,value
2019-02-03T00:01:58.726Z,57.07
2019-02-03T00:04:29.734Z,56.03
2019-02-03T00:07:03.392Z,53.73
2019-02-03T00:09:32.889Z,52.07
2019-02-03T00:12:03.678Z,51.10
2019-02-03T00:14:34.292Z,50.10
2019-02-03T00:17:04.955Z,49.73
2019-02-03T00:19:35.737Z,55.03
2019-02-03T00:22:08.050Z,54.60
2019-02-03T00:24:38.640Z,47.90
2019-02-03T00:27:09.460Z,48.20
2019-02-03T00:29:40.041Z,49.67
2019-02-03T00:32:10.949Z,50.27
2019-02-03T00:34:41.487Z,51.77
2019-02-03T00:37:16.777Z,52.53
2019-02-03T00:39:44.433Z,48.53
2019-02-03T00:42:14.920Z,45.33
2019-02-03T00:44:45.426Z,47.43
2019-02-03T00:47:16.150Z,44.07
2019-02-03T00:49:46.716Z,45.10
2019-02-03T00:52:18.044Z,48.87
2019-02-03T00:54:48.600Z,49.27
2019-02-03T00:57:19.229Z,50.70
2019-02-03T00:59:49.716Z,46.17
2019-02-03T01:02:20.298Z,46.23
2019-02-03T01:04:51.220Z,45.10
2019-02-03T01:07:27.580Z,42.27
2019-02-03T01:09:54.458Z,52.03
2019-02-03T01:12:25.498Z,45.87
2019-02-03T01:14:56.260Z,47.03
2019-02-03T01:17:26.869Z,49.50
2019-02-03T01:19:57.505Z,47.20
2019-02-03T01:22:28.010Z,45.40
2019-02-03T01:24:58.718Z,46.27
2019-02-03T01:27:29.209Z,44.17
2019-02-03T01:29:59.755Z,45.03
2019-02-03T01:32:30.400Z,46.43
2019-02-03T01:35:00.942Z,47.67
2019-02-03T01:37:39.218Z,47.47
2019-02-03T01:40:04.975Z,44.80
2019-02-03T01:42:35.468Z,43.67
2019-02-03T01:45:08.768Z,43.57
2019-02-03T01:47:39.437Z,40.87
2019-02-03T01:50:12.474Z,42.83
2019-02-03T01:52:43.927Z,41.93
2019-02-03T01:55:21.142Z,36.67
2019-02-03T01:57:51.704Z,38.43
2019-02-03T02:00:24.556Z,39.70
2019-02-03T02:02:55.197Z,35.63
2019-02-03T02:05:25.881Z,39.30
2019-02-03T02:07:56.458Z,41.17
2019-02-03T02:10:28.448Z,39.83
2019-02-03T02:12:59.371Z,37.23
2019-02-03T02:15:29.888Z,38.13
2019-02-03T02:18:00.382Z,37.83
2019-02-03T02:20:31.407Z,38.27
2019-02-03T02:23:01.901Z,42.00
2019-02-03T02:25:32.724Z,39.50
2019-02-03T02:28:05.280Z,41.53
2019-02-03T02:30:35.780Z,35.90
2019-02-03T02:33:06.486Z,39.03
2019-02-03T02:35:37.061Z,39.77
2019-02-03T02:38:07.818Z,37.50
2019-02-03T02:40:38.688Z,35.87
2019-02-03T02:43:09.300Z,36.47
2019-02-03T02:45:41.487Z,37.77
2019-02-03T02:48:12.379Z,36.67
2019-02-03T02:50:45.117Z,43.67
2019-02-03T02:53:16.181Z,44.57
2019-02-03T02:55:46.791Z,51.57
2019-02-03T02:58:17.272Z,65.23
2019-02-03T03:00:47.875Z,54.07
2019-02-03T03:03:18.379Z,49.33
2019-02-03T03:05:49.307Z,47.77
2019-02-03T03:08:20.117Z,46.83
2019-02-03T03:10:50.770Z,42.37
2019-02-03T03:13:21.400Z,46.93
2019-02-03T03:15:51.970Z,50.10
2019-02-03T03:18:22.883Z,39.03
2019-02-03T03:20:53.427Z,38.97
2019-02-03T03:23:24.034Z,39.50
2019-02-03T03:25:54.704Z,37.23
2019-02-03T03:28:25.424Z,46.80
2019-02-03T03:30:56.306Z,38.27
2019-02-03T03:33:26.975Z,39.53
2019-02-03T03:35:57.473Z,36.93
2019-02-03T03:38:32.104Z,36.17
2019-02-03T03:41:00.501Z,39.47
2019-02-03T03:43:31.173Z,35.77
2019-02-03T03:46:02.039Z,35.63
2019-02-03T03:48:32.543Z,36.53
2019-02-03T03:51:03.182Z,40.57
2019-02-03T03:53:33.966Z,36.13
2019-02-03T03:56:04.500Z,38.03
2019-02-03T03:58:35.028Z,38.13
2019-02-03T04:01:05.702Z,37.40
2019-02-03T04:03:36.211Z,38.33
2019-02-03T04:06:06.906Z,37.60
2019-02-03T04:08:45.343Z,34.70
2019-02-03T04:11:10.140Z,37.37
2019-02-03T04:13:40.899Z,36.37
2019-02-03T04:16:11.542Z,35.80
2019-02-03T04:18:42.273Z,32.93
2019-02-03T04:21:13.192Z,38.00
2019-02-03T04:23:43.843Z,34.03
2019-02-03T04:26:15.870Z,43.00
2019-02-03T04:28:48.191Z,32.60
2019-02-03T04:31:20.007Z,36.87
2019-02-03T04:33:50.658Z,34.40
2019-02-03T04:36:21.247Z,35.10
2019-02-03T04:38:58.204Z,33.27
2019-02-03T04:41:24.119Z,35.80
2019-02-03T04:43:55.088Z,34.13
2019-02-03T04:46:25.879Z,33.03
2019-02-03T04:48:56.538Z,31.67
2019-02-03T04:51:27.197Z,34.07
2019-02-03T04:53:57.984Z,29.70
2019-02-03T04:56:29.032Z,30.50
2019-02-03T04:59:00.840Z,32.43
2019-02-03T05:01:31.430Z,28.47
2019-02-03T05:04:02.041Z,34.83
2019-02-03T05:06:32.690Z,28.57
2019-02-03T05:09:11.339Z,31.10
2019-02-03T05:11:37.803Z,32.70
2019-02-03T05:14:08.658Z,40.50
2019-02-03T05:16:39.269Z,38.43
2019-02-03T05:19:09.925Z,37.73
2019-02-03T05:21:40.756Z,39.50
2019-02-03T05:24:11.348Z,40.00
2019-02-03T05:26:41.976Z,38.10
2019-02-03T05:29:12.662Z,31.87
2019-02-03T05:31:43.263Z,32.67
2019-02-03T05:34:14.146Z,30.27
2019-02-03T05:36:44.757Z,34.50
2019-02-03T05:39:24.593Z,29.90
2019-02-03T05:41:47.832Z,27.63
2019-02-03T05:44:18.380Z,29.23
2019-02-03T05:46:49.477Z,30.47
2019-02-03T05:49:20.139Z,32.63
2019-02-03T05:51:50.866Z,28.70
2019-02-03T05:54:21.628Z,27.37
2019-02-03T05:56:52.155Z,31.63
2019-02-03T05:59:22.935Z,30.30
2019-02-03T06:01:53.477Z,29.93
2019-02-03T06:04:24.047Z,31.33
2019-02-03T06:06:54.748Z,27.60
2019-02-03T06:09:36.027Z,28.93
2019-02-03T06:11:57.727Z,34.17
2019-02-03T06:14:28.282Z,33.60
2019-02-03T06:16:58.813Z,28.70
2019-02-03T06:19:29.513Z,32.03
2019-02-03T06:22:00.027Z,37.43
2019-02-03T06:24:30.559Z,33.10
2019-02-03T06:27:01.264Z,32.60
2019-02-03T06:29:31.783Z,33.13
2019-02-03T06:32:02.340Z,35.77
2019-02-03T06:34:33.074Z,34.80
2019-02-03T06:37:03.677Z,35.37
2019-02-03T06:39:35.933Z,35.37
2019-02-03T06:42:08.194Z,31.20
2019-02-03T06:44:38.734Z,31.57
2019-02-03T06:47:19.222Z,47.37
2019-02-03T06:49:49.916Z,34.77
2019-02-03T06:52:20.582Z,46.27
2019-02-03T06:54:51.219Z,44.43
2019-02-03T06:57:21.747Z,38.63
2019-02-03T06:59:52.458Z,28.60
2019-02-03T07:02:23.083Z,28.93
2019-02-03T07:04:53.756Z,36.00
2019-02-03T07:07:24.320Z,32.70
2019-02-03T07:10:01.142Z,36.70
2019-02-03T07:12:32.043Z,41.07
2019-02-03T07:15:02.515Z,45.13
2019-02-03T07:17:33.087Z,51.37
2019-02-03T07:20:03.785Z,52.37
2019-02-03T07:22:34.369Z,52.20
2019-02-03T07:25:05.547Z,53.57
2019-02-03T07:27:36.122Z,59.40
2019-02-03T07:30:08.933Z,62.07
2019-02-03T07:32:39.573Z,53.63
2019-02-03T07:35:10.949Z,49.20
2019-02-03T07:37:41.527Z,44.63
2019-02-03T07:40:12.927Z,40.67
2019-02-03T07:42:43.709Z,45.90
2019-02-03T07:45:14.383Z,34.30
2019-02-03T07:47:45.545Z,43.90
2019-02-03T07:50:16.507Z,33.93
2019-02-03T07:52:47.340Z,33.10
2019-02-03T07:55:17.828Z,30.23
2019-02-03T07:57:48.916Z,30.40
2019-02-03T08:00:21.065Z,27.13
2019-02-03T08:02:52.207Z,25.50
2019-02-03T08:05:22.922Z,27.73
2019-02-03T08:07:53.963Z,31.50
2019-02-03T08:10:26.633Z,33.03
2019-02-03T08:12:57.169Z,29.43
2019-02-03T08:15:27.812Z,29.20
2019-02-03T08:17:58.462Z,28.17
2019-02-03T08:20:29.357Z,27.37
2019-02-03T08:23:00.216Z,28.13
2019-02-03T08:25:33.635Z,24.23
2019-02-03T08:28:04.975Z,26.17
2019-02-03T08:30:35.799Z,27.97
2019-02-03T08:33:06.644Z,21.80
2019-02-03T08:35:37.281Z,27.73
2019-02-03T08:38:08.299Z,20.33
2019-02-03T08:40:39.372Z,23.00
2019-02-03T08:43:10.028Z,21.60
2019-02-03T08:45:41.032Z,18.77
2019-02-03T08:48:11.880Z,21.83
2019-02-03T08:50:43.054Z,20.00
2019-02-03T08:53:13.635Z,20.87
2019-02-03T08:55:44.342Z,21.57
2019-02-03T08:58:15.456Z,25.63
2019-02-03T09:00:48.172Z,23.00
2019-02-03T09:03:20.404Z,25.10
2019-02-03T09:05:51.124Z,24.80
2019-02-03T09:08:21.837Z,26.10
2019-02-03T09:10:53.922Z,26.47
2019-02-03T09:13:24.950Z,26.57
2019-02-03T09:15:56.137Z,24.97
2019-02-03T09:18:26.929Z,27.30
2019-02-03T09:20:57.695Z,22.47
2019-02-03T09:23:28.533Z,21.37
2019-02-03T09:26:20.340Z,26.30
2019-02-03T09:28:51.020Z,22.33
2019-02-03T09:31:21.577Z,21.33
2019-02-03T09:33:52.272Z,20.37
2019-02-03T09:36:23.356Z,20.53
2019-02-03T09:38:54.297Z,20.27
2019-02-03T09:41:25.058Z,17.70
2019-02-03T09:43:55.769Z,16.50
2019-02-03T09:46:26.445Z,23.23
2019-02-03T09:48:57.529Z,24.17
2019-02-03T09:51:28.287Z,23.70
2019-02-03T09:53:58.876Z,24.87
2019-02-03T09:56:29.789Z,20.90
2019-02-03T09:59:00.678Z,22.00
2019-02-03T10:01:31.670Z,28.10
2019-02-03T10:04:02.261Z,37.00
2019-02-03T10:06:33.204Z,38.30
2019-02-03T10:09:06.031Z,36.30
2019-02-03T10:11:36.888Z,41.87
2019-02-03T10:14:08.834Z,40.10
2019-02-03T10:16:39.636Z,42.33
2019-02-03T10:19:10.804Z,36.67
2019-02-03T10:21:41.518Z,37.03
2019-02-03T10:24:12.058Z,34.33
2019-02-03T10:26:43.277Z,39.00
2019-02-03T10:29:14.278Z,39.07
2019-02-03T10:31:44.904Z,35.77
2019-02-03T10:34:15.653Z,41.63
2019-02-03T10:36:46.460Z,41.50
2019-02-03T10:39:17.435Z,38.00
2019-02-03T10:41:48.410Z,38.97
2019-02-03T10:44:18.950Z,42.20
2019-02-03T10:46:49.560Z,46.77
2019-02-03T10:49:20.567Z,46.50
2019-02-03T10:51:51.445Z,63.00
2019-02-03T10:54:22.012Z,66.37
2019-02-03T10:56:52.761Z,54.47
2019-02-03T10:59:23.495Z,55.27
2019-02-03T11:01:54.095Z,52.50
2019-02-03T11:04:24.863Z,53.57
2019-02-03T11:06:55.855Z,51.47
2019-02-03T11:09:26.857Z,51.63
2019-02-03T11:11:57.380Z,47.57
2019-02-03T11:14:28.223Z,51.50
2019-02-03T11:16:59.103Z,48.27
2019-02-03T11:19:30.342Z,47.63
2019-02-03T11:22:01.151Z,42.03
2019-02-03T11:24:32.267Z,47.00
2019-02-03T11:27:03.054Z,45.77
2019-02-03T11:29:33.834Z,46.40
2019-02-03T11:32:04.362Z,48.57
2019-02-03T11:34:35.055Z,46.20
2019-02-03T11:37:06.109Z,37.73
2019-02-03T11:39:37.031Z,46.60
2019-02-03T11:42:07.853Z,45.00
2019-02-03T11:44:38.586Z,42.23
2019-02-03T11:47:09.752Z,41.87
2019-02-03T11:49:40.637Z,44.30
2019-02-03T11:52:11.292Z,50.17
2019-02-03T11:54:42.034Z,40.27
2019-02-03T11:57:12.540Z,42.53
2019-02-03T11:59:43.550Z,32.53
2019-02-03T12:02:14.201Z,40.50
2019-02-03T12:04:44.930Z,37.93
2019-02-03T12:07:15.738Z,40.77
2019-02-03T12:09:46.489Z,39.73
2019-02-03T12:12:17.026Z,41.60
2019-02-03T12:14:47.837Z,36.90
2019-02-03T12:17:19.145Z,36.43
2019-02-03T12:19:49.968Z,39.73
2019-02-03T12:22:20.621Z,36.37
2019-02-03T12:24:51.606Z,38.03
2019-02-03T12:27:22.626Z,36.67
2019-02-03T12:29:53.889Z,39.97
2019-02-03T12:32:24.544Z,43.83
2019-02-03T12:34:56.007Z,38.70
2019-02-03T12:37:26.864Z,39.80
2019-02-03T12:39:57.714Z,47.67
2019-02-03T12:42:28.255Z,39.03
2019-02-03T12:44:58.998Z,39.23
2019-02-03T12:47:30.147Z,33.00
2019-02-03T12:50:01.269Z,38.37
2019-02-03T12:52:32.051Z,39.60
2019-02-03T12:55:02.743Z,39.13
2019-02-03T12:57:33.342Z,44.00
2019-02-03T13:00:05.977Z,42.20
2019-02-03T13:02:36.607Z,39.83
2019-02-03T13:05:08.190Z,44.03
2019-02-03T13:07:39.262Z,49.57
2019-02-03T13:10:16.544Z,48.50
2019-02-03T13:12:46.409Z,57.20
2019-02-03T13:15:22.686Z,51.30
2019-02-03T13:17:53.657Z,60.00
2019-02-03T13:20:28.852Z,59.43
2019-02-03T13:22:59.824Z,61.27
2019-02-03T13:25:30.570Z,52.33
2019-02-03T13:28:01.392Z,52.13
2019-02-03T13:30:34.882Z,52.53
2019-02-03T13:33:05.658Z,56.63
2019-02-03T13:35:36.533Z,54.90
2019-02-03T13:38:08.105Z,56.43
2019-02-03T13:40:39.059Z,61.83
2019-02-03T13:43:09.689Z,61.67
2019-02-03T13:45:40.827Z,60.70
2019-02-03T13:48:12.077Z,54.80
2019-02-03T13:50:42.900Z,56.77
2019-02-03T13:53:13.802Z,57.40
2019-02-03T13:55:44.529Z,60.73
2019-02-03T13:58:15.387Z,57.13
2019-02-03T14:00:47.123Z,59.27
2019-02-03T14:03:17.940Z,56.57
2019-02-03T14:05:48.795Z,63.67
2019-02-03T14:08:19.721Z,60.17
2019-02-03T14:10:50.459Z,60.37
2019-02-03T14:13:21.497Z,64.50
2019-02-03T14:15:52.373Z,61.80
2019-02-03T14:18:24.010Z,62.13
2019-02-03T14:20:54.924Z,62.67
2019-02-03T14:23:25.499Z,71.37
2019-02-03T14:25:56.223Z,69.90
2019-02-03T14:28:27.247Z,61.80
2019-02-03T14:30:58.284Z,67.80
2019-02-03T14:33:29.608Z,64.00
2019-02-03T14:36:00.411Z,66.67
2019-02-03T14:38:32.699Z,69.87
2019-02-03T14:41:03.711Z,65.50
2019-02-03T14:43:34.567Z,68.23
2019-02-03T14:46:05.773Z,66.10
2019-02-03T14:48:36.405Z,63.40
2019-02-03T14:51:07.269Z,63.07
2019-02-03T14:53:38.123Z,64.47
2019-02-03T14:56:09.146Z,65.90
2019-02-03T14:58:40.101Z,65.13
2019-02-03T15:01:11.061Z,62.03
2019-02-03T15:03:41.692Z,64.23
2019-02-03T15:06:12.286Z,64.43
2019-02-03T15:08:42.927Z,62.27
2019-02-03T15:11:15.423Z,60.80
2019-02-03T15:13:46.118Z,62.73
2019-02-03T15:16:16.665Z,65.17
2019-02-03T15:18:47.197Z,59.83
2019-02-03T15:21:18.479Z,87.10
2019-02-03T15:23:48.973Z,78.40
2019-02-03T15:26:19.505Z,68.33
2019-02-03T15:28:50.309Z,64.90
2019-02-03T15:31:21.353Z,64.07
2019-02-03T15:33:52.193Z,68.57
2019-02-03T15:36:23.219Z,66.83
2019-02-03T15:38:53.807Z,63.73
2019-02-03T15:41:24.488Z,62.90
2019-02-03T15:43:55.163Z,57.17
2019-02-03T15:46:27.221Z,58.77
2019-02-03T15:48:57.892Z,60.43
2019-02-03T15:51:28.581Z,64.67
2019-02-03T15:54:00.314Z,65.90
2019-02-03T15:56:30.881Z,60.63
2019-02-03T15:59:02.346Z,65.10
2019-02-03T16:01:33.007Z,64.70
2019-02-03T16:04:03.710Z,61.50
2019-02-03T16:06:34.438Z,61.50
2019-02-03T16:09:07.562Z,61.80
2019-02-03T16:11:38.723Z,68.67
2019-02-03T16:14:09.264Z,60.30
2019-02-03T16:16:40.200Z,60.97
2019-02-03T16:19:11.346Z,63.70
2019-02-03T16:21:42.224Z,70.17
2019-02-03T16:24:13.167Z,68.07
2019-02-03T16:26:44.075Z,78.07
2019-02-03T16:29:15.068Z,77.40
2019-02-03T16:31:45.773Z,71.03
2019-02-03T16:34:16.367Z,74.67
2019-02-03T16:36:46.993Z,75.97
2019-02-03T16:39:19.043Z,71.17
2019-02-03T16:41:49.718Z,65.23
2019-02-03T16:44:22.867Z,69.80
2019-02-03T16:46:52.528Z,72.67
2019-02-03T16:49:23.819Z,68.70
2019-02-03T16:51:54.904Z,71.10
2019-02-03T16:54:25.607Z,76.17
2019-02-03T16:56:56.466Z,73.50
2019-02-03T16:59:27.079Z,65.27
2019-02-03T17:01:58.193Z,69.60
2019-02-03T17:04:28.823Z,66.40
2019-02-03T17:06:59.646Z,71.70
2019-02-03T17:09:32.722Z,72.10
2019-02-03T17:12:03.295Z,72.03
2019-02-03T17:14:34.226Z,66.57
2019-02-03T17:17:05.383Z,67.60
2019-02-03T17:19:36.086Z,67.07
2019-02-03T17:22:07.197Z,69.13
2019-02-03T17:24:37.830Z,73.27
2019-02-03T17:27:08.705Z,68.33
2019-02-03T17:29:40.834Z,71.67
2019-02-03T17:32:11.379Z,80.40
2019-02-03T17:34:41.895Z,69.27
2019-02-03T17:37:12.608Z,72.10
2019-02-03T17:39:43.660Z,90.33
2019-02-03T17:42:14.413Z,80.73
2019-02-03T17:44:45.220Z,85.97
2019-02-03T17:47:16.018Z,73.97
2019-02-03T17:49:46.785Z,96.80
2019-02-03T17:52:17.881Z,92.13
2019-02-03T17:54:48.453Z,86.93
2019-02-03T17:57:19.408Z,90.93
2019-02-03T17:59:51.395Z,77.07
2019-02-03T18:02:22.202Z,81.07
2019-02-03T18:04:54.417Z,74.67
2019-02-03T18:07:46.166Z,70.00
2019-02-03T18:10:22.856Z,75.10
2019-02-03T18:12:57.174Z,59.60
2019-02-03T18:15:29.078Z,65.43
2019-02-03T18:18:01.063Z,59.90
2019-02-03T18:20:44.082Z,60.17
2019-02-03T18:23:24.142Z,61.27
2019-02-03T18:26:11.587Z,65.90
2019-02-03T18:28:52.230Z,69.23
2019-02-03T18:31:40.242Z,63.77
2019-02-03T18:34:13.334Z,65.47
2019-02-03T18:36:46.851Z,60.33
2019-02-03T18:39:19.353Z,64.33
2019-02-03T18:41:52.060Z,62.80
2019-02-03T18:44:36.041Z,65.70
2019-02-03T18:47:10.620Z,55.50
2019-02-03T18:49:43.991Z,54.77
2019-02-03T18:52:14.781Z,48.77
2019-02-03T18:54:45.440Z,54.37
2019-02-03T18:57:16.476Z,51.47
2019-02-03T18:59:47.590Z,48.20
2019-02-03T19:02:18.580Z,48.97
2019-02-03T19:04:49.436Z,50.60
2019-02-03T19:07:20.491Z,55.23
2019-02-03T19:09:51.105Z,57.13
2019-02-03T19:12:22.240Z,61.70
2019-02-03T19:14:52.980Z,56.83
2019-02-03T19:17:23.771Z,52.80
2019-02-03T19:19:54.613Z,61.27
2019-02-03T19:22:25.384Z,61.03
2019-02-03T19:24:56.345Z,67.20
2019-02-03T19:27:27.003Z,59.83
2019-02-03T19:29:57.941Z,64.43
2019-02-03T19:32:29.277Z,66.77
2019-02-03T19:35:00.008Z,61.90
2019-02-03T19:37:30.813Z,66.13
2019-02-03T19:40:02.142Z,61.23
2019-02-03T19:42:33.022Z,61.57
2019-02-03T19:45:04.687Z,65.20
2019-02-03T19:47:36.274Z,66.80
2019-02-03T19:50:10.207Z,59.27
2019-02-03T19:52:43.810Z,66.43
2019-02-03T19:55:14.964Z,61.53
2019-02-03T19:57:46.079Z,56.37
2019-02-03T20:00:23.687Z,60.30
2019-02-03T20:02:54.591Z,59.50
2019-02-03T20:05:25.710Z,56.87
2019-02-03T20:07:56.837Z,54.53
2019-02-03T20:10:28.112Z,58.67
2019-02-03T20:13:01.700Z,59.10
2019-02-03T20:15:31.535Z,60.47
2019-02-03T20:18:02.640Z,63.97
2019-02-03T20:20:35.403Z,65.97
2019-02-03T20:23:06.830Z,60.13
2019-02-03T20:25:40.269Z,62.73
2019-02-03T20:28:12.123Z,67.30
2019-02-03T20:30:43.093Z,65.70
2019-02-03T20:33:13.780Z,67.83
2019-02-03T20:35:44.810Z,88.83
2019-02-03T20:38:15.605Z,90.37
2019-02-03T20:40:46.466Z,89.47
2019-02-03T20:43:17.460Z,76.03
2019-02-03T20:45:49.780Z,71.90
2019-02-03T20:48:20.956Z,97.87
2019-02-03T20:50:51.968Z,78.57
2019-02-03T20:53:23.203Z,97.20
2019-02-03T20:55:54.022Z,88.40
2019-02-03T20:58:24.576Z,81.50
2019-02-03T21:00:55.789Z,84.23
2019-02-03T21:03:27.169Z,74.20
2019-02-03T21:05:57.669Z,67.87
2019-02-03T21:08:30.203Z,94.17
2019-02-03T21:11:02.892Z,86.80
2019-02-03T21:13:35.742Z,91.50
2019-02-03T21:16:08.057Z,103.17
2019-02-03T21:18:40.858Z,126.03
2019-02-03T21:21:11.575Z,103.57
2019-02-03T21:23:42.375Z,112.33
2019-02-03T21:26:16.482Z,101.13
2019-02-03T21:28:46.514Z,87.37
2019-02-03T21:31:17.615Z,108.60
2019-02-03T21:33:48.625Z,148.23
2019-02-03T21:36:19.611Z,106.80
2019-02-03T21:38:50.833Z,109.00
2019-02-03T21:41:21.514Z,92.67
2019-02-03T21:43:52.763Z,129.30
2019-02-03T21:46:24.080Z,127.17
2019-02-03T21:48:55.209Z,123.23
2019-02-03T21:51:25.876Z,113.47
2019-02-03T21:53:56.948Z,108.03
2019-02-03T21:56:27.638Z,105.47
2019-02-03T21:58:58.535Z,107.20
2019-02-03T22:01:29.590Z,106.70
2019-02-03T22:04:00.639Z,103.43
2019-02-03T22:06:31.433Z,105.67
2019-02-03T22:09:04.489Z,103.17
2019-02-03T22:11:35.797Z,107.70
2019-02-03T22:14:06.986Z,98.97
2019-02-03T22:16:37.753Z,96.03
2019-02-03T22:19:09.360Z,95.93
2019-02-03T22:21:40.678Z,88.30
2019-02-03T22:24:11.780Z,91.80
2019-02-03T22:26:43.486Z,81.93
2019-02-03T22:29:14.659Z,91.23
2019-02-03T22:31:46.338Z,87.20
2019-02-03T22:34:18.811Z,81.97
2019-02-03T22:36:50.617Z,80.97
2019-02-03T22:39:22.438Z,76.60
2019-02-03T22:41:55.011Z,76.07
2019-02-03T22:44:26.574Z,81.47
2019-02-03T22:46:58.701Z,85.53
2019-02-03T22:49:30.579Z,87.90
2019-02-03T22:52:02.529Z,98.50
2019-02-03T22:54:35.355Z,103.43
2019-02-03T22:57:07.319Z,106.80
2019-02-03T22:59:39.252Z,113.33
2019-02-03T23:02:11.958Z,107.97
2019-02-03T23:04:43.645Z,105.73
2019-02-03T23:07:15.712Z,102.37
2019-02-03T23:09:47.813Z,103.00
2019-02-03T23:12:20.339Z,97.10
2019-02-03T23:14:52.974Z,96.07
2019-02-03T23:17:23.837Z,97.17
2019-02-03T23:19:55.912Z,93.10
2019-02-03T23:22:27.527Z,91.77
2019-02-03T23:24:59.396Z,95.40
2019-02-03T23:27:31.616Z,100.77
2019-02-03T23:30:04.729Z,101.97
2019-02-03T23:32:40.141Z,94.67
2019-02-03T23:35:14.207Z,102.00
2019-02-03T23:37:45.332Z,93.27
2019-02-03T23:40:17.461Z,97.30
2019-02-03T23:42:51.000Z,92.60
2019-02-03T23:45:23.457Z,95.07
2019-02-03T23:47:55.949Z,93.57
2019-02-03T23:50:27.651Z,90.43
2019-02-03T23:52:59.451Z,90.03
2019-02-03T23:55:31.623Z,93.80
2019-02-03T23:58:03.492Z,83.40
